createdAt,value
2023-04-26T00:00:29.117Z,43.26
2023-04-26T00:01:29.102Z,43.93
2023-04-26T00:02:29.146Z,43.51
2023-04-26T00:03:29.277Z,42.34
2023-04-26T00:04:29.321Z,42.69
2023-04-26T00:05:29.174Z,41.80
2023-04-26T00:06:29.068Z,42.17
2023-04-26T00:07:29.139Z,42.89
2023-04-26T00:08:29.197Z,43.79
2023-04-26T00:09:29.232Z,43.38
2023-04-26T00:10:29.270Z,44.51
2023-04-26T00:11:29.306Z,44.16
2023-04-26T00:12:29.352Z,43.29
2023-04-26T00:13:29.390Z,43.07
2023-04-26T00:14:29.419Z,42.96
2023-04-26T00:15:29.466Z,43.07
2023-04-26T00:16:29.552Z,44.95
2023-04-26T00:17:29.505Z,44.97
2023-04-26T00:18:29.488Z,44.31
2023-04-26T00:19:29.468Z,44.62
2023-04-26T00:20:29.461Z,45.94
2023-04-26T00:21:29.459Z,44.66
2023-04-26T00:22:29.427Z,47.19
2023-04-26T00:23:29.421Z,44.63
2023-04-26T00:24:29.395Z,44.92
2023-04-26T00:25:29.372Z,44.13
2023-04-26T00:26:29.363Z,45.89
2023-04-26T00:27:29.335Z,45.28
2023-04-26T00:28:29.334Z,45.86
2023-04-26T00:29:29.324Z,44.84
2023-04-26T00:30:29.365Z,45.00
2023-04-26T00:31:29.369Z,46.20
2023-04-26T00:32:29.381Z,46.22
2023-04-26T00:33:29.354Z,46.37
2023-04-26T00:34:29.343Z,45.39
2023-04-26T00:35:29.325Z,46.22
2023-04-26T00:36:29.310Z,46.03
2023-04-26T00:37:29.314Z,45.38
2023-04-26T00:38:29.291Z,46.20
2023-04-26T00:39:29.268Z,45.04
2023-04-26T00:40:29.284Z,43.93
2023-04-26T00:41:29.255Z,44.63
2023-04-26T00:42:29.228Z,43.88
2023-04-26T00:43:29.244Z,45.05
2023-04-26T00:44:29.241Z,43.61
2023-04-26T00:45:29.238Z,42.69
2023-04-26T00:46:29.241Z,41.12
2023-04-26T00:47:29.205Z,43.95
2023-04-26T00:48:29.195Z,42.23
2023-04-26T00:49:29.196Z,42.57
2023-04-26T00:50:29.142Z,41.75
2023-04-26T00:51:29.679Z,41.90
2023-04-26T00:52:29.192Z,41.96
2023-04-26T00:53:29.103Z,42.16
2023-04-26T00:54:29.104Z,44.00
2023-04-26T00:55:29.109Z,43.49
2023-04-26T00:56:29.078Z,44.55
2023-04-26T00:57:29.048Z,44.62
2023-04-26T00:58:29.049Z,45.00
2023-04-26T00:59:29.059Z,45.10
2023-04-26T01:00:29.011Z,45.84
2023-04-26T01:01:29.058Z,47.69
2023-04-26T01:02:29.050Z,45.78
2023-04-26T01:03:29.105Z,44.82
2023-04-26T01:04:29.035Z,48.71
2023-04-26T01:05:28.960Z,46.14
2023-04-26T01:06:28.927Z,45.93
2023-04-26T01:07:28.905Z,45.14
2023-04-26T01:08:28.903Z,47.62
2023-04-26T01:09:28.904Z,46.89
2023-04-26T01:10:28.933Z,47.32
2023-04-26T01:11:28.938Z,48.60
2023-04-26T01:12:28.972Z,48.02
2023-04-26T01:13:29.030Z,46.62
2023-04-26T01:14:29.116Z,45.94
2023-04-26T01:15:29.107Z,44.61
2023-04-26T01:16:29.144Z,49.48
2023-04-26T01:17:29.250Z,47.33
2023-04-26T01:18:29.221Z,44.83
2023-04-26T01:19:29.237Z,46.07
2023-04-26T01:20:29.301Z,46.40
2023-04-26T01:21:29.322Z,45.28
2023-04-26T01:22:29.348Z,48.77
2023-04-26T01:23:29.367Z,49.88
2023-04-26T01:24:29.396Z,49.70
2023-04-26T01:25:29.431Z,48.18
2023-04-26T01:26:29.403Z,47.85
2023-04-26T01:27:29.397Z,48.74
2023-04-26T01:28:29.398Z,48.51
2023-04-26T01:29:29.412Z,46.88
2023-04-26T01:30:29.439Z,51.67
2023-04-26T01:31:29.478Z,51.03
2023-04-26T01:32:29.448Z,50.55
2023-04-26T01:33:29.402Z,49.96
2023-04-26T01:34:29.434Z,49.89
2023-04-26T01:35:29.379Z,51.16
2023-04-26T01:36:29.379Z,50.11
2023-04-26T01:37:29.348Z,48.24
2023-04-26T01:38:29.350Z,50.13
2023-04-26T01:39:29.358Z,49.83
2023-04-26T01:40:29.353Z,48.81
2023-04-26T01:41:29.317Z,50.72
2023-04-26T01:42:29.322Z,51.08
2023-04-26T01:43:29.322Z,50.95
2023-04-26T01:44:29.293Z,52.68
2023-04-26T01:45:29.292Z,52.66
2023-04-26T01:46:29.334Z,51.19
2023-04-26T01:47:29.286Z,51.14
2023-04-26T01:48:29.273Z,51.18
2023-04-26T01:49:29.266Z,53.73
2023-04-26T01:50:29.258Z,55.75
2023-04-26T01:51:29.289Z,53.93
2023-04-26T01:52:29.253Z,53.43
2023-04-26T01:53:29.243Z,55.24
2023-04-26T01:54:29.254Z,54.61
2023-04-26T01:55:29.242Z,56.78
2023-04-26T01:56:29.211Z,57.40
2023-04-26T01:57:29.207Z,55.75
2023-04-26T01:58:29.196Z,54.73
2023-04-26T01:59:29.233Z,58.88
2023-04-26T02:00:29.176Z,59.39
2023-04-26T02:01:29.187Z,58.32
2023-04-26T02:02:29.244Z,62.09
2023-04-26T02:03:29.184Z,61.29
2023-04-26T02:04:29.157Z,62.28
2023-04-26T02:05:29.300Z,62.76
2023-04-26T02:06:29.140Z,62.51
2023-04-26T02:07:29.154Z,65.54
2023-04-26T02:08:29.092Z,64.25
2023-04-26T02:09:29.091Z,62.58
2023-04-26T02:10:29.115Z,63.70
2023-04-26T02:11:29.064Z,61.30
2023-04-26T02:12:29.069Z,61.27
2023-04-26T02:13:29.035Z,63.68
2023-04-26T02:14:29.054Z,63.94
2023-04-26T02:15:29.014Z,65.90
2023-04-26T02:16:29.122Z,65.03
2023-04-26T02:17:29.009Z,65.43
2023-04-26T02:18:28.991Z,65.06
2023-04-26T02:19:28.979Z,65.63
2023-04-26T02:20:28.976Z,66.28
2023-04-26T02:21:28.986Z,65.97
2023-04-26T02:22:28.986Z,67.65
2023-04-26T02:23:28.983Z,67.41
2023-04-26T02:24:28.983Z,66.67
2023-04-26T02:25:28.985Z,68.05
2023-04-26T02:26:28.970Z,67.45
2023-04-26T02:27:28.952Z,67.98
2023-04-26T02:28:28.963Z,67.80
2023-04-26T02:29:43.105Z,68.37
2023-04-26T02:30:29.952Z,68.40
2023-04-26T02:31:29.026Z,68.67
2023-04-26T02:32:28.971Z,68.62
2023-04-26T02:33:28.936Z,69.13
2023-04-26T02:34:28.946Z,66.23
2023-04-26T02:35:28.932Z,67.42
2023-04-26T02:36:28.875Z,69.56
2023-04-26T02:37:28.858Z,67.47
2023-04-26T02:38:29.724Z,67.56
2023-04-26T02:39:28.913Z,66.89
2023-04-26T02:40:28.876Z,68.05
2023-04-26T02:41:28.932Z,66.76
2023-04-26T02:42:28.937Z,67.54
2023-04-26T02:43:28.856Z,67.94
2023-04-26T02:44:28.863Z,67.57
2023-04-26T02:45:28.969Z,68.79
2023-04-26T02:46:28.932Z,68.59
2023-04-26T02:47:28.744Z,67.56
2023-04-26T02:48:28.768Z,68.21
2023-04-26T02:49:28.766Z,66.86
2023-04-26T02:50:28.765Z,65.17
2023-04-26T02:51:28.688Z,66.21
2023-04-26T02:52:28.787Z,66.41
2023-04-26T02:53:28.704Z,67.26
2023-04-26T02:54:28.701Z,67.36
2023-04-26T02:55:28.692Z,69.12
2023-04-26T02:56:28.697Z,67.45
2023-04-26T02:57:28.696Z,66.88
2023-04-26T02:58:28.695Z,68.24
2023-04-26T02:59:28.671Z,65.93
2023-04-26T03:00:28.644Z,66.24
2023-04-26T03:01:28.698Z,66.69
2023-04-26T03:02:28.806Z,66.64
2023-04-26T03:03:28.996Z,69.45
2023-04-26T03:04:28.730Z,70.54
2023-04-26T03:05:28.607Z,66.83
2023-04-26T03:06:29.231Z,66.59
2023-04-26T03:07:29.233Z,68.47
2023-04-26T03:08:28.738Z,66.67
2023-04-26T03:09:28.789Z,68.46
2023-04-26T03:10:28.708Z,68.37
2023-04-26T03:11:28.624Z,71.38
2023-04-26T03:12:28.728Z,71.25
2023-04-26T03:13:28.590Z,70.76
2023-04-26T03:14:28.647Z,72.22
2023-04-26T03:15:28.711Z,75.90
2023-04-26T03:16:28.620Z,73.30
2023-04-26T03:17:28.500Z,73.41
2023-04-26T03:18:28.569Z,74.26
2023-04-26T03:19:28.467Z,74.10
2023-04-26T03:20:28.472Z,74.98
2023-04-26T03:21:28.431Z,79.16
2023-04-26T03:22:28.420Z,79.18
2023-04-26T03:23:28.437Z,80.74
2023-04-26T03:24:28.436Z,77.76
2023-04-26T03:25:28.403Z,76.65
2023-04-26T03:26:28.358Z,77.24
2023-04-26T03:27:28.356Z,79.97
2023-04-26T03:28:28.307Z,81.25
2023-04-26T03:29:28.313Z,80.32
2023-04-26T03:30:28.315Z,81.12
2023-04-26T03:31:28.419Z,78.75
2023-04-26T03:32:28.293Z,79.74
2023-04-26T03:33:28.253Z,79.46
2023-04-26T03:34:28.253Z,79.82
2023-04-26T03:35:28.214Z,80.13
2023-04-26T03:36:28.222Z,81.73
2023-04-26T03:37:28.221Z,81.84
2023-04-26T03:38:28.200Z,81.97
2023-04-26T03:39:28.174Z,81.15
2023-04-26T03:40:28.182Z,80.81
2023-04-26T03:41:28.157Z,82.84
2023-04-26T03:42:28.145Z,84.03
2023-04-26T03:43:28.126Z,83.75
2023-04-26T03:44:30.532Z,81.79
2023-04-26T03:45:28.118Z,84.44
2023-04-26T03:46:28.184Z,82.39
2023-04-26T03:47:28.172Z,84.32
2023-04-26T03:48:28.106Z,84.37
2023-04-26T03:49:28.073Z,84.29
2023-04-26T03:50:28.082Z,83.88
2023-04-26T03:51:28.071Z,85.05
2023-04-26T03:52:28.058Z,83.96
2023-04-26T03:53:28.050Z,85.55
2023-04-26T03:54:28.047Z,84.26
2023-04-26T03:55:28.165Z,85.29
2023-04-26T03:56:28.014Z,85.13
2023-04-26T03:57:27.995Z,85.10
2023-04-26T03:58:27.999Z,83.72
2023-04-26T03:59:28.003Z,83.37
2023-04-26T04:00:27.973Z,83.06
2023-04-26T04:01:27.978Z,83.28
2023-04-26T04:02:28.077Z,83.55
2023-04-26T04:03:28.204Z,84.53
2023-04-26T04:04:28.183Z,85.97
2023-04-26T04:05:27.958Z,84.51
2023-04-26T04:06:27.933Z,84.67
2023-04-26T04:07:27.922Z,84.96
2023-04-26T04:08:27.922Z,85.21
2023-04-26T04:09:27.900Z,84.73
2023-04-26T04:10:27.924Z,85.49
2023-04-26T04:11:27.891Z,88.45
2023-04-26T04:12:27.873Z,86.04
2023-04-26T04:13:27.884Z,85.88
2023-04-26T04:14:27.871Z,85.85
2023-04-26T04:15:27.838Z,85.49
2023-04-26T04:16:27.936Z,84.60
2023-04-26T04:17:27.840Z,84.86
2023-04-26T04:18:27.820Z,85.11
2023-04-26T04:19:27.826Z,83.14
2023-04-26T04:20:27.795Z,88.11
2023-04-26T04:21:27.761Z,86.00
2023-04-26T04:22:27.764Z,85.60
2023-04-26T04:23:27.757Z,87.69
2023-04-26T04:24:27.772Z,87.24
2023-04-26T04:25:27.737Z,87.55
2023-04-26T04:26:27.734Z,87.61
2023-04-26T04:27:27.799Z,87.96
2023-04-26T04:28:27.712Z,88.71
2023-04-26T04:29:27.707Z,88.76
2023-04-26T04:30:27.699Z,92.87
2023-04-26T04:31:27.765Z,90.06
2023-04-26T04:32:27.731Z,88.99
2023-04-26T04:33:28.257Z,92.07
2023-04-26T04:34:27.751Z,89.54
2023-04-26T04:35:27.650Z,91.36
2023-04-26T04:36:27.698Z,92.03
2023-04-26T04:37:28.265Z,93.75
2023-04-26T04:38:27.620Z,96.95
2023-04-26T04:39:27.619Z,94.54
2023-04-26T04:40:27.614Z,95.73
2023-04-26T04:41:27.593Z,95.12
2023-04-26T04:42:27.569Z,96.97
2023-04-26T04:43:27.564Z,97.62
2023-04-26T04:44:27.573Z,95.86
2023-04-26T04:45:27.527Z,98.51
2023-04-26T04:46:27.572Z,97.29
2023-04-26T04:47:27.530Z,97.35
2023-04-26T04:48:27.474Z,96.43
2023-04-26T04:49:27.488Z,97.30
2023-04-26T04:50:27.463Z,97.79
2023-04-26T04:51:27.446Z,100.57
2023-04-26T04:52:27.430Z,96.67
2023-04-26T04:53:27.417Z,97.77
2023-04-26T04:54:27.440Z,97.77
2023-04-26T04:55:27.407Z,97.60
2023-04-26T04:56:27.380Z,97.92
2023-04-26T04:57:27.375Z,97.99
2023-04-26T04:58:27.352Z,98.37
2023-04-26T04:59:28.109Z,98.98
2023-04-26T05:00:27.350Z,100.35
2023-04-26T05:01:27.348Z,103.25
2023-04-26T05:02:27.528Z,101.27
2023-04-26T05:03:27.515Z,100.57
2023-04-26T05:04:27.524Z,99.91
2023-04-26T05:05:27.286Z,99.69
2023-04-26T05:06:27.264Z,101.31
2023-04-26T05:07:29.022Z,99.48
2023-04-26T05:08:27.252Z,100.84
2023-04-26T05:09:27.239Z,101.17
2023-04-26T05:10:27.214Z,102.46
2023-04-26T05:11:27.199Z,102.11
2023-04-26T05:12:27.238Z,102.16
2023-04-26T05:13:27.172Z,102.18
2023-04-26T05:14:27.181Z,102.12
2023-04-26T05:15:27.227Z,102.12
2023-04-26T05:16:27.241Z,100.77
2023-04-26T05:17:27.190Z,99.54
2023-04-26T05:18:27.141Z,101.01
2023-04-26T05:19:27.131Z,101.11
2023-04-26T05:20:27.120Z,101.21
2023-04-26T05:21:27.100Z,92.46
2023-04-26T05:22:27.082Z,98.15
2023-04-26T05:23:27.074Z,100.57
2023-04-26T05:24:27.051Z,102.89
2023-04-26T05:25:27.028Z,100.11
2023-04-26T05:26:26.999Z,102.20
2023-04-26T05:27:27.004Z,104.89
2023-04-26T05:28:27.801Z,105.69
2023-04-26T05:29:26.973Z,105.35
2023-04-26T05:30:26.994Z,105.45
2023-04-26T05:31:27.003Z,105.56
2023-04-26T05:32:26.981Z,105.87
2023-04-26T05:33:26.933Z,106.03
2023-04-26T05:34:26.896Z,107.63
2023-04-26T05:35:26.895Z,106.23
2023-04-26T05:36:29.134Z,107.94
2023-04-26T05:37:26.848Z,121.76
2023-04-26T05:38:26.821Z,125.70
2023-04-26T05:39:26.808Z,141.67
2023-04-26T05:40:26.784Z,142.14
2023-04-26T05:41:26.754Z,145.27
2023-04-26T05:42:26.793Z,152.35
2023-04-26T05:43:26.708Z,162.49
2023-04-26T05:44:26.685Z,183.27
2023-04-26T05:45:26.701Z,143.37
2023-04-26T05:46:29.369Z,149.04
2023-04-26T05:47:26.707Z,158.67
2023-04-26T05:48:26.589Z,177.27
2023-04-26T05:49:26.587Z,200.36
2023-04-26T05:50:26.557Z,205.80
2023-04-26T05:51:26.603Z,208.67
2023-04-26T05:52:26.516Z,212.89
2023-04-26T05:53:26.690Z,221.31
2023-04-26T05:54:26.537Z,226.08
2023-04-26T05:55:26.488Z,231.02
2023-04-26T05:56:26.443Z,238.43
2023-04-26T05:57:26.450Z,242.08
2023-04-26T05:58:26.394Z,246.35
2023-04-26T05:59:26.396Z,245.99
2023-04-26T06:00:26.817Z,249.41
2023-04-26T06:01:26.372Z,250.00
2023-04-26T06:02:26.441Z,246.72
2023-04-26T06:03:26.450Z,247.45
2023-04-26T06:04:26.465Z,250.58
2023-04-26T06:05:26.551Z,247.71
2023-04-26T06:06:26.205Z,250.00
2023-04-26T06:07:26.198Z,249.01
2023-04-26T06:08:26.166Z,250.09
2023-04-26T06:09:26.161Z,245.45
2023-04-26T06:10:26.102Z,248.44
2023-04-26T06:11:26.185Z,250.58
2023-04-26T06:12:26.138Z,245.33
2023-04-26T06:13:26.068Z,250.00
2023-04-26T06:14:30.568Z,249.88
2023-04-26T06:15:27.005Z,250.08
2023-04-26T06:16:26.031Z,251.06
2023-04-26T06:17:26.039Z,253.91
2023-04-26T06:18:25.952Z,257.35
2023-04-26T06:19:26.018Z,265.20
2023-04-26T06:20:25.909Z,253.93
2023-04-26T06:21:25.859Z,248.51
2023-04-26T06:22:25.892Z,249.08
2023-04-26T06:23:25.867Z,248.04
2023-04-26T06:24:26.027Z,246.98
2023-04-26T06:25:25.882Z,250.00
2023-04-26T06:26:25.727Z,247.67
2023-04-26T06:27:25.714Z,247.78
2023-04-26T06:28:25.661Z,248.22
2023-04-26T06:29:25.709Z,249.19
2023-04-26T06:30:25.621Z,252.00
2023-04-26T06:31:25.625Z,256.94
2023-04-26T06:32:25.603Z,249.45
2023-04-26T06:33:25.532Z,249.31
2023-04-26T06:34:25.512Z,248.25
2023-04-26T06:35:25.628Z,249.40
2023-04-26T06:36:25.502Z,247.55
2023-04-26T06:37:25.431Z,245.50
2023-04-26T06:38:25.413Z,240.55
2023-04-26T06:39:25.492Z,237.73
2023-04-26T06:40:25.483Z,236.43
2023-04-26T06:41:25.469Z,237.03
2023-04-26T06:42:25.485Z,232.36
2023-04-26T06:43:25.589Z,231.81
2023-04-26T06:44:25.524Z,230.20
2023-04-26T06:45:28.432Z,230.37
2023-04-26T06:46:25.987Z,231.08
2023-04-26T06:47:25.294Z,232.45
2023-04-26T06:48:25.247Z,236.50
2023-04-26T06:49:25.400Z,238.37
2023-04-26T06:50:25.125Z,236.39
2023-04-26T06:51:25.085Z,235.41
2023-04-26T06:52:25.064Z,232.54
2023-04-26T06:53:25.014Z,232.57
2023-04-26T06:54:24.980Z,233.53
2023-04-26T06:55:24.973Z,228.59
2023-04-26T06:56:24.891Z,222.26
2023-04-26T06:57:24.894Z,220.63
2023-04-26T06:58:24.964Z,216.64
2023-04-26T06:59:24.838Z,215.75
2023-04-26T07:00:24.782Z,217.24
2023-04-26T07:01:25.330Z,215.53
2023-04-26T07:02:24.979Z,214.70
2023-04-26T07:03:24.945Z,212.80
2023-04-26T07:04:24.832Z,207.16
2023-04-26T07:05:24.627Z,201.59
2023-04-26T07:06:24.601Z,195.90
2023-04-26T07:07:25.074Z,193.36
2023-04-26T07:08:24.527Z,194.32
2023-04-26T07:09:24.534Z,188.59
2023-04-26T07:10:24.468Z,183.64
2023-04-26T07:11:25.924Z,179.81
2023-04-26T07:12:24.394Z,175.85
2023-04-26T07:13:24.370Z,170.90
2023-04-26T07:14:24.336Z,170.48
2023-04-26T07:15:24.342Z,177.78
2023-04-26T07:16:24.297Z,180.71
2023-04-26T07:17:24.312Z,180.43
2023-04-26T07:18:24.238Z,180.41
2023-04-26T07:19:24.425Z,180.46
2023-04-26T07:20:24.282Z,180.26
2023-04-26T07:21:24.326Z,171.21
2023-04-26T07:22:24.332Z,166.81
2023-04-26T07:23:24.369Z,173.62
2023-04-26T07:24:24.413Z,175.66
2023-04-26T07:25:24.402Z,176.84
2023-04-26T07:26:24.427Z,177.61
2023-04-26T07:27:24.458Z,179.84
2023-04-26T07:28:24.456Z,180.96
2023-04-26T07:29:24.477Z,182.20
2023-04-26T07:30:24.545Z,182.13
2023-04-26T07:31:24.512Z,184.09
2023-04-26T07:32:24.605Z,184.10
2023-04-26T07:33:24.534Z,184.11
2023-04-26T07:34:24.406Z,184.50
2023-04-26T07:35:24.380Z,184.28
2023-04-26T07:36:25.151Z,185.86
2023-04-26T07:37:24.302Z,190.61
2023-04-26T07:38:24.289Z,193.57
2023-04-26T07:39:24.343Z,193.99
2023-04-26T07:40:24.236Z,196.74
2023-04-26T07:41:24.570Z,196.80
2023-04-26T07:42:24.231Z,201.18
2023-04-26T07:43:24.121Z,201.92
2023-04-26T07:44:24.145Z,199.72
2023-04-26T07:45:24.108Z,196.82
2023-04-26T07:46:24.100Z,190.86
2023-04-26T07:47:24.023Z,184.03
2023-04-26T07:48:23.980Z,176.78
2023-04-26T07:49:23.997Z,165.66
2023-04-26T07:50:23.921Z,154.71
2023-04-26T07:51:23.928Z,152.63
2023-04-26T07:52:23.920Z,154.34
2023-04-26T07:53:23.831Z,158.18
2023-04-26T07:54:26.341Z,159.92
2023-04-26T07:55:26.437Z,166.40
2023-04-26T07:56:24.026Z,164.22
2023-04-26T07:57:24.063Z,166.19
2023-04-26T07:58:24.096Z,162.86
2023-04-26T07:59:24.141Z,158.58
2023-04-26T08:00:24.939Z,155.30
2023-04-26T08:01:24.212Z,152.64
2023-04-26T08:02:33.206Z,154.29
2023-04-26T08:03:25.416Z,154.38
2023-04-26T08:04:24.594Z,154.36
2023-04-26T08:05:24.380Z,154.58
2023-04-26T08:06:24.375Z,149.92
2023-04-26T08:07:24.259Z,141.87
2023-04-26T08:08:24.375Z,143.30
2023-04-26T08:09:24.067Z,138.58
2023-04-26T08:10:24.126Z,138.28
2023-04-26T08:11:24.050Z,136.73
2023-04-26T08:12:24.090Z,137.47
2023-04-26T08:13:24.844Z,134.16
2023-04-26T08:14:24.153Z,130.08
2023-04-26T08:15:24.235Z,129.62
2023-04-26T08:16:24.293Z,127.15
2023-04-26T08:17:24.268Z,130.22
2023-04-26T08:18:24.223Z,130.36
2023-04-26T08:19:24.202Z,130.90
2023-04-26T08:20:24.329Z,130.53
2023-04-26T08:21:24.166Z,89.64
2023-04-26T08:22:24.133Z,29.26
2023-04-26T08:23:24.115Z,0.00
2023-04-26T08:24:24.078Z,0.00
2023-04-26T08:25:24.090Z,0.00
2023-04-26T08:26:24.061Z,0.00
2023-04-26T08:27:24.037Z,0.00
2023-04-26T08:28:23.987Z,0.00
2023-04-26T08:29:23.961Z,0.00
2023-04-26T08:30:23.969Z,0.00
2023-04-26T08:31:23.941Z,26.92
2023-04-26T08:32:23.945Z,50.32
2023-04-26T08:33:23.889Z,66.12
2023-04-26T08:34:23.879Z,72.82
2023-04-26T08:35:23.851Z,74.07
2023-04-26T08:36:23.838Z,77.22
2023-04-26T08:37:23.827Z,74.90
2023-04-26T08:38:23.858Z,70.64
2023-04-26T08:39:23.890Z,58.61
2023-04-26T08:40:23.927Z,48.53
2023-04-26T08:41:24.194Z,39.82
2023-04-26T08:42:24.076Z,27.67
2023-04-26T08:43:24.008Z,24.64
2023-04-26T08:44:24.053Z,22.07
2023-04-26T08:45:24.068Z,25.12
2023-04-26T08:46:24.118Z,26.20
2023-04-26T08:47:24.067Z,30.18
2023-04-26T08:48:24.109Z,30.38
2023-04-26T08:49:24.860Z,28.64
2023-04-26T08:50:24.178Z,29.64
2023-04-26T08:51:24.064Z,31.14
2023-04-26T08:52:24.153Z,30.70
2023-04-26T08:53:24.116Z,30.52
2023-04-26T08:54:24.189Z,29.61
2023-04-26T08:55:24.158Z,16.35
2023-04-26T08:56:24.151Z,0.74
2023-04-26T08:57:24.256Z,0.00
2023-04-26T08:58:24.137Z,0.00
2023-04-26T08:59:24.126Z,0.00
2023-04-26T09:00:24.099Z,0.00
2023-04-26T09:01:24.097Z,2.31
2023-04-26T09:02:24.268Z,11.83
2023-04-26T09:03:24.146Z,26.51
2023-04-26T09:04:24.710Z,48.10
2023-04-26T09:05:24.086Z,59.63
2023-04-26T09:06:23.980Z,59.94
2023-04-26T09:07:23.994Z,61.89
2023-04-26T09:08:23.936Z,66.52
2023-04-26T09:09:23.904Z,74.43
2023-04-26T09:10:24.089Z,60.53
2023-04-26T09:11:23.851Z,64.29
2023-04-26T09:12:23.841Z,72.42
2023-04-26T09:13:23.845Z,86.25
2023-04-26T09:14:23.879Z,105.95
2023-04-26T09:15:23.765Z,112.17
2023-04-26T09:16:23.808Z,114.48
2023-04-26T09:17:23.740Z,114.64
2023-04-26T09:18:23.694Z,115.57
2023-04-26T09:19:23.664Z,118.14
2023-04-26T09:20:23.652Z,123.00
2023-04-26T09:21:23.597Z,130.53
2023-04-26T09:22:23.585Z,133.75
2023-04-26T09:23:23.560Z,136.56
2023-04-26T09:24:23.542Z,138.47
2023-04-26T09:25:24.475Z,142.03
2023-04-26T09:26:23.556Z,144.04
2023-04-26T09:27:23.561Z,146.60
2023-04-26T09:28:23.643Z,147.12
2023-04-26T09:29:23.631Z,149.81
2023-04-26T09:30:23.791Z,151.90
2023-04-26T09:31:23.865Z,153.43
2023-04-26T09:32:23.750Z,155.24
2023-04-26T09:33:23.840Z,157.82
2023-04-26T09:34:23.863Z,158.56
2023-04-26T09:35:23.886Z,160.60
2023-04-26T09:36:23.948Z,161.46
2023-04-26T09:37:23.963Z,163.51
2023-04-26T09:38:24.025Z,163.98
2023-04-26T09:39:24.101Z,165.68
2023-04-26T09:40:24.139Z,166.78
2023-04-26T09:41:24.136Z,167.63
2023-04-26T09:42:24.172Z,169.35
2023-04-26T09:43:24.895Z,107.14
2023-04-26T09:44:24.191Z,97.42
2023-04-26T09:45:24.189Z,102.18
2023-04-26T09:46:24.261Z,119.06
2023-04-26T09:47:24.213Z,129.30
2023-04-26T09:48:24.217Z,137.50
2023-04-26T09:49:24.150Z,146.81
2023-04-26T09:50:24.127Z,151.06
2023-04-26T09:51:24.150Z,154.53
2023-04-26T09:52:24.191Z,159.64
2023-04-26T09:53:24.225Z,161.37
2023-04-26T09:54:24.300Z,164.14
2023-04-26T09:55:33.999Z,168.23
2023-04-26T09:56:25.261Z,168.36
2023-04-26T09:57:24.236Z,169.16
2023-04-26T09:58:24.221Z,170.65
2023-04-26T09:59:24.203Z,174.22
2023-04-26T10:00:24.319Z,179.82
2023-04-26T10:01:24.273Z,180.55
2023-04-26T10:02:25.171Z,182.87
2023-04-26T10:03:24.996Z,184.81
2023-04-26T10:04:24.107Z,187.14
2023-04-26T10:05:24.090Z,187.09
2023-04-26T10:06:24.006Z,186.96
2023-04-26T10:07:24.008Z,187.61
2023-04-26T10:08:24.048Z,187.69
2023-04-26T10:09:24.085Z,188.05
2023-04-26T10:10:23.913Z,187.97
2023-04-26T10:11:23.901Z,189.75
2023-04-26T10:12:23.884Z,189.05
2023-04-26T10:13:23.853Z,188.54
2023-04-26T10:14:23.778Z,189.33
2023-04-26T10:15:23.788Z,187.92
2023-04-26T10:16:23.903Z,188.43
2023-04-26T10:17:23.792Z,196.00
2023-04-26T10:18:23.736Z,197.95
2023-04-26T10:19:23.799Z,203.79
2023-04-26T10:20:23.821Z,207.49
2023-04-26T10:21:23.934Z,208.32
2023-04-26T10:22:23.906Z,210.33
2023-04-26T10:23:23.634Z,213.32
2023-04-26T10:24:23.592Z,213.82
2023-04-26T10:25:23.640Z,215.30
2023-04-26T10:26:24.420Z,215.05
2023-04-26T10:27:23.693Z,214.09
2023-04-26T10:28:23.706Z,215.37
2023-04-26T10:29:23.829Z,216.89
2023-04-26T10:30:24.441Z,219.04
2023-04-26T10:31:24.960Z,219.22
2023-04-26T10:32:24.407Z,218.18
2023-04-26T10:33:24.071Z,217.32
2023-04-26T10:34:23.703Z,215.48
2023-04-26T10:35:23.626Z,214.78
2023-04-26T10:36:24.038Z,253.07
2023-04-26T10:37:23.563Z,246.41
2023-04-26T10:38:23.592Z,241.82
2023-04-26T10:39:23.594Z,230.19
2023-04-26T10:40:23.635Z,214.65
2023-04-26T10:41:23.703Z,196.76
2023-04-26T10:42:24.516Z,188.49
2023-04-26T10:43:24.351Z,189.58
2023-04-26T10:44:23.530Z,193.54
2023-04-26T10:45:23.496Z,195.01
2023-04-26T10:46:23.546Z,191.89
2023-04-26T10:47:23.463Z,185.76
2023-04-26T10:48:23.404Z,181.54
2023-04-26T10:49:26.293Z,175.10
2023-04-26T10:50:23.427Z,172.16
2023-04-26T10:51:23.329Z,169.43
2023-04-26T10:52:23.367Z,166.85
2023-04-26T10:53:23.243Z,162.04
2023-04-26T10:54:23.913Z,155.18
2023-04-26T10:55:24.981Z,149.41
2023-04-26T10:56:23.150Z,143.64
2023-04-26T10:57:23.134Z,124.84
2023-04-26T10:58:23.084Z,126.93
2023-04-26T10:59:39.922Z,128.12
2023-04-26T11:00:24.058Z,127.11
2023-04-26T11:01:23.094Z,98.14
2023-04-26T11:02:23.034Z,89.87
2023-04-26T11:03:23.117Z,91.22
2023-04-26T11:04:23.080Z,97.50
2023-04-26T11:05:25.305Z,100.54
2023-04-26T11:06:22.960Z,99.71
2023-04-26T11:07:22.984Z,97.33
2023-04-26T11:08:23.007Z,94.37
2023-04-26T11:09:23.020Z,93.90
2023-04-26T11:10:23.052Z,93.16
2023-04-26T11:11:23.067Z,93.42
2023-04-26T11:12:23.057Z,96.17
2023-04-26T11:13:23.053Z,99.46
2023-04-26T11:14:23.071Z,102.56
2023-04-26T11:15:23.141Z,105.49
2023-04-26T11:16:23.105Z,108.27
2023-04-26T11:17:23.176Z,111.43
2023-04-26T11:18:23.066Z,111.63
2023-04-26T11:19:23.079Z,112.75
2023-04-26T11:20:23.001Z,115.01
2023-04-26T11:21:22.952Z,111.92
2023-04-26T11:22:22.949Z,113.81
2023-04-26T11:23:22.919Z,118.47
2023-04-26T11:24:22.853Z,120.29
2023-04-26T11:25:22.827Z,130.55
2023-04-26T11:26:22.887Z,138.17
2023-04-26T11:27:22.936Z,144.77
2023-04-26T11:28:22.815Z,150.13
2023-04-26T11:29:22.706Z,156.49
2023-04-26T11:30:22.703Z,163.33
2023-04-26T11:31:22.746Z,168.24
2023-04-26T11:32:23.441Z,173.40
2023-04-26T11:33:22.590Z,179.74
2023-04-26T11:34:22.561Z,183.55
2023-04-26T11:35:22.564Z,188.26
2023-04-26T11:36:22.538Z,192.50
2023-04-26T11:37:22.479Z,193.45
2023-04-26T11:38:22.466Z,193.53
2023-04-26T11:39:22.433Z,193.65
2023-04-26T11:40:22.431Z,193.97
2023-04-26T11:41:22.405Z,193.91
2023-04-26T11:42:22.387Z,193.18
2023-04-26T11:43:22.371Z,193.34
2023-04-26T11:44:22.339Z,194.01
2023-04-26T11:45:22.327Z,193.95
2023-04-26T11:46:22.289Z,194.08
2023-04-26T11:47:22.243Z,193.89
2023-04-26T11:48:22.331Z,192.71
2023-04-26T11:49:22.181Z,191.21
2023-04-26T11:50:22.228Z,192.47
2023-04-26T11:51:22.287Z,192.02
2023-04-26T11:52:22.092Z,191.10
2023-04-26T11:53:22.068Z,190.17
2023-04-26T11:54:22.134Z,189.97
2023-04-26T11:55:22.050Z,189.43
2023-04-26T11:56:22.127Z,189.43
2023-04-26T11:57:22.957Z,188.08
2023-04-26T11:58:22.081Z,188.40
2023-04-26T11:59:21.910Z,187.90
2023-04-26T12:00:22.089Z,188.22
2023-04-26T12:01:21.879Z,187.05
2023-04-26T12:02:21.957Z,186.93
2023-04-26T12:03:22.052Z,184.84
2023-04-26T12:04:21.966Z,184.08
2023-04-26T12:05:21.849Z,184.09
2023-04-26T12:06:21.801Z,183.95
2023-04-26T12:07:21.757Z,183.20
2023-04-26T12:08:21.723Z,184.12
2023-04-26T12:09:21.761Z,182.96
2023-04-26T12:10:21.765Z,183.35
2023-04-26T12:11:21.684Z,179.98
2023-04-26T12:12:21.660Z,179.98
2023-04-26T12:13:21.626Z,177.86
2023-04-26T12:14:21.561Z,176.78
2023-04-26T12:15:21.546Z,176.22
2023-04-26T12:16:26.880Z,174.13
2023-04-26T12:17:22.577Z,174.82
2023-04-26T12:18:21.660Z,173.83
2023-04-26T12:19:21.443Z,175.80
2023-04-26T12:20:21.366Z,176.58
2023-04-26T12:21:21.353Z,177.12
2023-04-26T12:22:21.342Z,176.99
2023-04-26T12:23:21.509Z,175.86
2023-04-26T12:24:21.261Z,174.32
2023-04-26T12:25:21.280Z,173.53
2023-04-26T12:26:21.554Z,174.07
2023-04-26T12:27:21.281Z,173.26
2023-04-26T12:28:21.174Z,172.92
2023-04-26T12:29:21.180Z,172.13
2023-04-26T12:30:21.224Z,172.16
2023-04-26T12:31:21.245Z,171.61
2023-04-26T12:32:22.633Z,172.27
2023-04-26T12:33:21.311Z,170.82
2023-04-26T12:34:21.236Z,171.10
2023-04-26T12:35:21.255Z,170.88
2023-04-26T12:36:21.265Z,171.60
2023-04-26T12:37:21.285Z,170.50
2023-04-26T12:38:21.297Z,169.78
2023-04-26T12:39:21.316Z,168.83
2023-04-26T12:40:21.343Z,167.06